sensor_id;sensor_type;location;lat;lon;timestamp;temperature;humidity
62581;DHT22;48640;48.770;9.148;2023-11-21T00:01:03;9.00;99.90
62581;DHT22;48640;48.770;9.148;2023-11-21T00:03:32;9.00;99.90
62581;DHT22;48640;48.770;9.148;2023-11-21T00:06:00;9.10;99.90
62581;DHT22;48640;48.770;9.148;2023-11-21T00:08:28;9.00;99.90
62581;DHT22;48640;48.770;9.148;2023-11-21T00:10:55;9.00;99.90
62581;DHT22;48640;48.770;9.148;2023-11-21T00:13:22;9.00;99.90
62581;DHT22;48640;48.770;9.148;2023-11-21T00:15:49;9.00;99.90
62581;DHT22;48640;48.770;9.148;2023-11-21T00:18:16;9.00;99.90
62581;DHT22;48640;48.770;9.148;2023-11-21T00:20:47;8.90;99.90
62581;DHT22;48640;48.770;9.148;2023-11-21T00:23:13;8.90;99.90
62581;DHT22;48640;48.770;9.148;2023-11-21T00:25:40;9.00;99.90
62581;DHT22;48640;48.770;9.148;2023-11-21T00:28:07;9.00;99.90
62581;DHT22;48640;48.770;9.148;2023-11-21T00:30:34;8.90;99.90
62581;DHT22;48640;48.770;9.148;2023-11-21T00:33:01;9.00;99.90
62581;DHT22;48640;48.770;9.148;2023-11-21T00:35:29;9.00;99.90
62581;DHT22;48640;48.770;9.148;2023-11-21T00:37:58;9.10;99.90
62581;DHT22;48640;48.770;9.148;2023-11-21T00:40:26;9.10;99.90
62581;DHT22;48640;48.770;9.148;2023-11-21T00:42:53;9.10;99.90
62581;DHT22;48640;48.770;9.148;2023-11-21T00:45:21;9.20;99.90
62581;DHT22;48640;48.770;9.148;2023-11-21T00:47:48;9.10;99.90
62581;DHT22;48640;48.770;9.148;2023-11-21T00:50:15;9.20;99.90
62581;DHT22;48640;48.770;9.148;2023-11-21T00:52:42;9.10;99.90
62581;DHT22;48640;48.770;9.148;2023-11-21T00:55:10;9.10;99.90
62581;DHT22;48640;48.770;9.148;2023-11-21T00:57:37;9.10;99.90
62581;DHT22;48640;48.770;9.148;2023-11-21T01:00:05;9.00;99.90
62581;DHT22;48640;48.770;9.148;2023-11-21T01:02:34;9.00;99.90
62581;DHT22;48640;48.770;9.148;2023-11-21T01:05:02;9.00;99.90
62581;DHT22;48640;48.770;9.148;2023-11-21T01:07:30;9.00;99.90
62581;DHT22;48640;48.770;9.148;2023-11-21T01:09:57;9.00;99.90
62581;DHT22;48640;48.770;9.148;2023-11-21T01:12:25;9.00;99.90
62581;DHT22;48640;48.770;9.148;2023-11-21T01:14:52;9.00;99.90
62581;DHT22;48640;48.770;9.148;2023-11-21T01:17:19;9.00;99.90
62581;DHT22;48640;48.770;9.148;2023-11-21T01:19:48;8.90;99.90
62581;DHT22;48640;48.770;9.148;2023-11-21T01:22:15;8.90;99.90
62581;DHT22;48640;48.770;9.148;2023-11-21T01:24:43;8.90;99.90
62581;DHT22;48640;48.770;9.148;2023-11-21T01:27:10;8.90;99.90
62581;DHT22;48640;48.770;9.148;2023-11-21T01:29:38;9.00;99.90
62581;DHT22;48640;48.770;9.148;2023-11-21T01:32:06;9.00;99.90
62581;DHT22;48640;48.770;9.148;2023-11-21T01:34:33;9.00;99.90
62581;DHT22;48640;48.770;9.148;2023-11-21T01:37:00;9.00;99.90
62581;DHT22;48640;48.770;9.148;2023-11-21T01:39:30;9.10;99.90
62581;DHT22;48640;48.770;9.148;2023-11-21T01:41:57;9.10;99.90
62581;DHT22;48640;48.770;9.148;2023-11-21T01:44:24;9.00;99.90
62581;DHT22;48640;48.770;9.148;2023-11-21T01:46:52;9.10;99.90
62581;DHT22;48640;48.770;9.148;2023-11-21T01:49:20;9.10;99.90
62581;DHT22;48640;48.770;9.148;2023-11-21T01:51:48;9.10;99.90
62581;DHT22;48640;48.770;9.148;2023-11-21T01:54:16;9.20;99.90
62581;DHT22;48640;48.770;9.148;2023-11-21T01:56:44;9.10;99.90
62581;DHT22;48640;48.770;9.148;2023-11-21T01:59:14;9.10;99.90
62581;DHT22;48640;48.770;9.148;2023-11-21T02:01:43;9.10;99.90
62581;DHT22;48640;48.770;9.148;2023-11-21T02:04:12;9.10;99.90
62581;DHT22;48640;48.770;9.148;2023-11-21T02:06:39;9.10;99.90
62581;DHT22;48640;48.770;9.148;2023-11-21T02:09:06;9.10;99.90
62581;DHT22;48640;48.770;9.148;2023-11-21T02:11:34;9.10;99.90
62581;DHT22;48640;48.770;9.148;2023-11-21T02:14:01;9.00;99.90
62581;DHT22;48640;48.770;9.148;2023-11-21T02:16:28;9.10;99.90
62581;DHT22;48640;48.770;9.148;2023-11-21T02:18:57;9.10;99.90
62581;DHT22;48640;48.770;9.148;2023-11-21T02:21:26;9.20;99.90
62581;DHT22;48640;48.770;9.148;2023-11-21T02:23:56;9.20;99.90
62581;DHT22;48640;48.770;9.148;2023-11-21T02:26:22;9.10;99.90
62581;DHT22;48640;48.770;9.148;2023-11-21T02:28:51;9.10;99.90
62581;DHT22;48640;48.770;9.148;2023-11-21T02:31:19;9.00;99.90
62581;DHT22;48640;48.770;9.148;2023-11-21T02:33:47;9.00;99.90
62581;DHT22;48640;48.770;9.148;2023-11-21T02:36:15;9.00;99.90
62581;DHT22;48640;48.770;9.148;2023-11-21T02:38:42;9.10;99.90
62581;DHT22;48640;48.770;9.148;2023-11-21T02:41:11;9.10;99.90
62581;DHT22;48640;48.770;9.148;2023-11-21T02:43:38;9.00;99.90
62581;DHT22;48640;48.770;9.148;2023-11-21T02:46:05;9.10;99.90
62581;DHT22;48640;48.770;9.148;2023-11-21T02:48:32;9.00;99.90
62581;DHT22;48640;48.770;9.148;2023-11-21T02:50:59;9.00;99.90
62581;DHT22;48640;48.770;9.148;2023-11-21T02:53:26;9.00;99.90
62581;DHT22;48640;48.770;9.148;2023-11-21T02:55:53;8.90;99.90
62581;DHT22;48640;48.770;9.148;2023-11-21T02:58:21;8.80;99.90
62581;DHT22;48640;48.770;9.148;2023-11-21T03:00:48;8.80;99.90
62581;DHT22;48640;48.770;9.148;2023-11-21T03:03:15;8.80;99.90
62581;DHT22;48640;48.770;9.148;2023-11-21T03:05:42;8.80;99.90
62581;DHT22;48640;48.770;9.148;2023-11-21T03:08:10;8.70;99.90
62581;DHT22;48640;48.770;9.148;2023-11-21T03:10:37;8.80;99.90
62581;DHT22;48640;48.770;9.148;2023-11-21T03:13:04;8.80;99.90
62581;DHT22;48640;48.770;9.148;2023-11-21T03:15:32;8.80;99.90
62581;DHT22;48640;48.770;9.148;2023-11-21T03:18:00;8.80;99.90
62581;DHT22;48640;48.770;9.148;2023-11-21T03:20:27;8.80;99.90
62581;DHT22;48640;48.770;9.148;2023-11-21T03:22:54;8.80;99.90
62581;DHT22;48640;48.770;9.148;2023-11-21T03:25:21;8.80;99.90
62581;DHT22;48640;48.770;9.148;2023-11-21T03:27:49;8.80;99.90
62581;DHT22;48640;48.770;9.148;2023-11-21T03:30:17;8.80;99.90
62581;DHT22;48640;48.770;9.148;2023-11-21T03:32:45;8.90;99.90
62581;DHT22;48640;48.770;9.148;2023-11-21T03:35:13;8.90;99.90
62581;DHT22;48640;48.770;9.148;2023-11-21T03:37:40;8.90;99.90
62581;DHT22;48640;48.770;9.148;2023-11-21T03:40:08;8.90;99.90
62581;DHT22;48640;48.770;9.148;2023-11-21T03:42:35;8.90;99.90
62581;DHT22;48640;48.770;9.148;2023-11-21T03:45:02;8.90;99.90
62581;DHT22;48640;48.770;9.148;2023-11-21T03:47:30;8.90;99.90
62581;DHT22;48640;48.770;9.148;2023-11-21T03:49:58;8.90;99.90
62581;DHT22;48640;48.770;9.148;2023-11-21T03:52:27;8.90;99.90
62581;DHT22;48640;48.770;9.148;2023-11-21T03:54:54;8.80;99.90
62581;DHT22;48640;48.770;9.148;2023-11-21T03:57:22;8.80;99.90
62581;DHT22;48640;48.770;9.148;2023-11-21T03:59:51;8.90;99.90
62581;DHT22;48640;48.770;9.148;2023-11-21T04:02:17;8.90;99.90
62581;DHT22;48640;48.770;9.148;2023-11-21T04:04:45;8.90;99.90
62581;DHT22;48640;48.770;9.148;2023-11-21T04:07:14;8.90;99.90
62581;DHT22;48640;48.770;9.148;2023-11-21T04:09:41;8.90;99.90
62581;DHT22;48640;48.770;9.148;2023-11-21T04:12:08;8.90;99.90
62581;DHT22;48640;48.770;9.148;2023-11-21T04:14:35;8.90;99.90
62581;DHT22;48640;48.770;9.148;2023-11-21T04:17:02;8.90;99.90
62581;DHT22;48640;48.770;9.148;2023-11-21T04:19:29;8.90;99.90
62581;DHT22;48640;48.770;9.148;2023-11-21T04:21:56;8.80;99.90
62581;DHT22;48640;48.770;9.148;2023-11-21T04:24:25;8.80;99.90
62581;DHT22;48640;48.770;9.148;2023-11-21T04:26:51;8.80;99.90
62581;DHT22;48640;48.770;9.148;2023-11-21T04:29:19;8.80;99.90
62581;DHT22;48640;48.770;9.148;2023-11-21T04:31:46;8.80;99.90
62581;DHT22;48640;48.770;9.148;2023-11-21T04:34:14;8.80;99.90
62581;DHT22;48640;48.770;9.148;2023-11-21T04:36:42;8.90;99.90
62581;DHT22;48640;48.770;9.148;2023-11-21T04:39:08;8.80;99.90
62581;DHT22;48640;48.770;9.148;2023-11-21T04:41:38;8.80;99.90
62581;DHT22;48640;48.770;9.148;2023-11-21T04:44:06;8.90;99.90
62581;DHT22;48640;48.770;9.148;2023-11-21T04:46:33;8.80;99.90
62581;DHT22;48640;48.770;9.148;2023-11-21T04:49:00;8.70;99.90
62581;DHT22;48640;48.770;9.148;2023-11-21T04:51:26;8.70;99.90
62581;DHT22;48640;48.770;9.148;2023-11-21T04:53:53;8.60;99.90
62581;DHT22;48640;48.770;9.148;2023-11-21T04:56:20;8.60;99.90
62581;DHT22;48640;48.770;9.148;2023-11-21T04:58:49;8.60;99.90
62581;DHT22;48640;48.770;9.148;2023-11-21T05:01:16;8.50;99.90
62581;DHT22;48640;48.770;9.148;2023-11-21T05:03:43;8.50;99.90
62581;DHT22;48640;48.770;9.148;2023-11-21T05:06:12;8.50;99.90
62581;DHT22;48640;48.770;9.148;2023-11-21T05:08:39;8.50;99.90
62581;DHT22;48640;48.770;9.148;2023-11-21T05:11:07;8.50;99.90
62581;DHT22;48640;48.770;9.148;2023-11-21T05:13:36;8.50;99.90
62581;DHT22;48640;48.770;9.148;2023-11-21T05:16:08;8.50;99.90
62581;DHT22;48640;48.770;9.148;2023-11-21T05:18:35;8.50;99.90
62581;DHT22;48640;48.770;9.148;2023-11-21T05:21:02;8.50;99.90
62581;DHT22;48640;48.770;9.148;2023-11-21T05:23:29;8.50;99.90
62581;DHT22;48640;48.770;9.148;2023-11-21T05:25:56;8.50;99.90
62581;DHT22;48640;48.770;9.148;2023-11-21T05:28:23;8.50;99.90
62581;DHT22;48640;48.770;9.148;2023-11-21T05:30:50;8.60;99.90
62581;DHT22;48640;48.770;9.148;2023-11-21T05:33:20;8.60;99.90
62581;DHT22;48640;48.770;9.148;2023-11-21T05:35:46;8.60;99.90
62581;DHT22;48640;48.770;9.148;2023-11-21T05:38:14;8.70;99.90
62581;DHT22;48640;48.770;9.148;2023-11-21T05:40:41;8.60;99.90
62581;DHT22;48640;48.770;9.148;2023-11-21T05:43:09;8.70;99.90
62581;DHT22;48640;48.770;9.148;2023-11-21T05:45:37;8.50;99.90
62581;DHT22;48640;48.770;9.148;2023-11-21T05:48:04;8.50;99.90
62581;DHT22;48640;48.770;9.148;2023-11-21T05:50:33;8.40;99.90
62581;DHT22;48640;48.770;9.148;2023-11-21T05:52:59;8.40;99.90
62581;DHT22;48640;48.770;9.148;2023-11-21T05:55:26;8.40;99.90
62581;DHT22;48640;48.770;9.148;2023-11-21T05:57:53;8.40;99.90
62581;DHT22;48640;48.770;9.148;2023-11-21T06:00:20;8.30;99.90
62581;DHT22;48640;48.770;9.148;2023-11-21T06:02:48;8.40;99.90
62581;DHT22;48640;48.770;9.148;2023-11-21T06:05:17;8.40;99.90
62581;DHT22;48640;48.770;9.148;2023-11-21T06:07:46;8.40;99.90
62581;DHT22;48640;48.770;9.148;2023-11-21T06:10:13;8.40;99.90
62581;DHT22;48640;48.770;9.148;2023-11-21T06:12:40;8.50;99.90
62581;DHT22;48640;48.770;9.148;2023-11-21T06:15:09;8.40;99.90
62581;DHT22;48640;48.770;9.148;2023-11-21T06:17:39;8.50;99.90
62581;DHT22;48640;48.770;9.148;2023-11-21T06:20:08;8.40;99.90
62581;DHT22;48640;48.770;9.148;2023-11-21T06:22:35;8.50;99.90
62581;DHT22;48640;48.770;9.148;2023-11-21T06:25:05;8.40;99.90
62581;DHT22;48640;48.770;9.148;2023-11-21T06:27:33;8.50;99.90
62581;DHT22;48640;48.770;9.148;2023-11-21T06:30:01;8.60;99.90
62581;DHT22;48640;48.770;9.148;2023-11-21T06:32:29;8.60;99.90
62581;DHT22;48640;48.770;9.148;2023-11-21T06:34:56;8.60;99.90
62581;DHT22;48640;48.770;9.148;2023-11-21T06:37:24;8.60;99.90
62581;DHT22;48640;48.770;9.148;2023-11-21T06:39:52;8.60;99.90
62581;DHT22;48640;48.770;9.148;2023-11-21T06:42:20;8.60;99.90
62581;DHT22;48640;48.770;9.148;2023-11-21T06:44:47;8.60;99.90
62581;DHT22;48640;48.770;9.148;2023-11-21T06:47:17;8.60;99.90
62581;DHT22;48640;48.770;9.148;2023-11-21T06:49:46;8.60;99.90
62581;DHT22;48640;48.770;9.148;2023-11-21T06:52:13;8.70;99.90
62581;DHT22;48640;48.770;9.148;2023-11-21T06:54:41;8.70;99.90
62581;DHT22;48640;48.770;9.148;2023-11-21T06:57:08;8.70;99.90
62581;DHT22;48640;48.770;9.148;2023-11-21T06:59:36;8.80;99.90
62581;DHT22;48640;48.770;9.148;2023-11-21T07:02:03;8.80;99.90
62581;DHT22;48640;48.770;9.148;2023-11-21T07:04:31;8.90;99.90
62581;DHT22;48640;48.770;9.148;2023-11-21T07:06:58;8.90;99.90
62581;DHT22;48640;48.770;9.148;2023-11-21T07:09:25;8.90;99.90
62581;DHT22;48640;48.770;9.148;2023-11-21T07:11:53;8.90;99.90
62581;DHT22;48640;48.770;9.148;2023-11-21T07:14:20;8.90;99.90
62581;DHT22;48640;48.770;9.148;2023-11-21T07:16:49;9.00;99.90
62581;DHT22;48640;48.770;9.148;2023-11-21T07:19:18;9.00;99.90
62581;DHT22;48640;48.770;9.148;2023-11-21T07:21:45;9.00;99.90
62581;DHT22;48640;48.770;9.148;2023-11-21T07:24:12;9.00;99.90
62581;DHT22;48640;48.770;9.148;2023-11-21T07:26:39;9.00;99.90
62581;DHT22;48640;48.770;9.148;2023-11-21T07:29:07;9.00;99.90
62581;DHT22;48640;48.770;9.148;2023-11-21T07:31:34;9.10;99.90
62581;DHT22;48640;48.770;9.148;2023-11-21T07:34:02;9.10;99.90
62581;DHT22;48640;48.770;9.148;2023-11-21T07:36:29;9.00;99.90
62581;DHT22;48640;48.770;9.148;2023-11-21T07:38:56;9.00;99.90
62581;DHT22;48640;48.770;9.148;2023-11-21T07:41:22;9.10;99.90
62581;DHT22;48640;48.770;9.148;2023-11-21T07:43:49;9.20;99.90
62581;DHT22;48640;48.770;9.148;2023-11-21T07:46:16;9.20;99.90
62581;DHT22;48640;48.770;9.148;2023-11-21T07:48:43;9.10;99.90
62581;DHT22;48640;48.770;9.148;2023-11-21T07:51:13;9.10;99.90
62581;DHT22;48640;48.770;9.148;2023-11-21T07:53:39;9.20;99.90
62581;DHT22;48640;48.770;9.148;2023-11-21T07:56:08;9.20;99.90
62581;DHT22;48640;48.770;9.148;2023-11-21T07:58:35;9.30;99.90
62581;DHT22;48640;48.770;9.148;2023-11-21T08:01:02;9.40;99.90
62581;DHT22;48640;48.770;9.148;2023-11-21T08:03:30;9.40;99.90
62581;DHT22;48640;48.770;9.148;2023-11-21T08:05:57;9.50;99.90
62581;DHT22;48640;48.770;9.148;2023-11-21T08:08:25;9.50;99.90
62581;DHT22;48640;48.770;9.148;2023-11-21T08:10:53;9.60;99.90
62581;DHT22;48640;48.770;9.148;2023-11-21T08:13:23;9.60;99.90
62581;DHT22;48640;48.770;9.148;2023-11-21T08:15:50;9.60;99.90
62581;DHT22;48640;48.770;9.148;2023-11-21T08:18:16;9.50;99.90
62581;DHT22;48640;48.770;9.148;2023-11-21T08:20:44;9.50;99.90
62581;DHT22;48640;48.770;9.148;2023-11-21T08:23:13;9.50;99.90
62581;DHT22;48640;48.770;9.148;2023-11-21T08:25:43;9.50;99.90
62581;DHT22;48640;48.770;9.148;2023-11-21T08:28:10;9.50;99.90
62581;DHT22;48640;48.770;9.148;2023-11-21T08:30:39;9.50;99.90
62581;DHT22;48640;48.770;9.148;2023-11-21T08:33:07;9.50;99.90
62581;DHT22;48640;48.770;9.148;2023-11-21T08:35:34;9.60;99.90
62581;DHT22;48640;48.770;9.148;2023-11-21T08:38:01;9.60;99.90
62581;DHT22;48640;48.770;9.148;2023-11-21T08:40:28;9.70;99.90
62581;DHT22;48640;48.770;9.148;2023-11-21T08:42:57;9.70;99.90
62581;DHT22;48640;48.770;9.148;2023-11-21T08:45:24;9.70;99.90
62581;DHT22;48640;48.770;9.148;2023-11-21T08:47:52;9.90;99.90
62581;DHT22;48640;48.770;9.148;2023-11-21T08:50:19;10.00;99.90
62581;DHT22;48640;48.770;9.148;2023-11-21T08:52:48;10.10;99.90
62581;DHT22;48640;48.770;9.148;2023-11-21T08:55:16;10.30;99.90
62581;DHT22;48640;48.770;9.148;2023-11-21T08:57:45;10.50;99.90
62581;DHT22;48640;48.770;9.148;2023-11-21T09:00:14;10.70;99.90
62581;DHT22;48640;48.770;9.148;2023-11-21T09:02:42;10.90;99.90
62581;DHT22;48640;48.770;9.148;2023-11-21T09:05:10;11.10;99.90
62581;DHT22;48640;48.770;9.148;2023-11-21T09:07:40;11.30;99.90
62581;DHT22;48640;48.770;9.148;2023-11-21T09:10:08;11.50;99.90
62581;DHT22;48640;48.770;9.148;2023-11-21T09:12:35;11.60;99.90
62581;DHT22;48640;48.770;9.148;2023-11-21T09:15:04;11.70;99.90
62581;DHT22;48640;48.770;9.148;2023-11-21T09:17:33;11.80;99.90
62581;DHT22;48640;48.770;9.148;2023-11-21T09:20:00;11.70;99.90
62581;DHT22;48640;48.770;9.148;2023-11-21T09:22:29;11.90;99.90
62581;DHT22;48640;48.770;9.148;2023-11-21T09:24:57;12.10;99.90
62581;DHT22;48640;48.770;9.148;2023-11-21T09:27:24;12.00;99.90
62581;DHT22;48640;48.770;9.148;2023-11-21T09:29:54;12.00;99.90
62581;DHT22;48640;48.770;9.148;2023-11-21T09:32:21;12.10;99.90
62581;DHT22;48640;48.770;9.148;2023-11-21T09:34:50;12.00;99.90
62581;DHT22;48640;48.770;9.148;2023-11-21T09:37:17;11.90;99.90
62581;DHT22;48640;48.770;9.148;2023-11-21T09:39:44;11.90;99.90
62581;DHT22;48640;48.770;9.148;2023-11-21T09:42:17;11.70;99.90
62581;DHT22;48640;48.770;9.148;2023-11-21T09:44:51;11.70;99.90
62581;DHT22;48640;48.770;9.148;2023-11-21T09:47:24;11.60;99.90
62581;DHT22;48640;48.770;9.148;2023-11-21T09:49:54;11.50;99.90
62581;DHT22;48640;48.770;9.148;2023-11-21T09:52:25;11.40;99.90
62581;DHT22;48640;48.770;9.148;2023-11-21T09:54:54;11.30;99.90
62581;DHT22;48640;48.770;9.148;2023-11-21T09:57:23;11.30;99.90
62581;DHT22;48640;48.770;9.148;2023-11-21T09:59:51;11.20;99.90
62581;DHT22;48640;48.770;9.148;2023-11-21T10:02:22;11.10;99.90
62581;DHT22;48640;48.770;9.148;2023-11-21T10:04:53;11.00;99.90
62581;DHT22;48640;48.770;9.148;2023-11-21T10:07:21;11.00;99.90
62581;DHT22;48640;48.770;9.148;2023-11-21T10:09:48;11.00;99.90
62581;DHT22;48640;48.770;9.148;2023-11-21T10:12:15;10.90;99.90
62581;DHT22;48640;48.770;9.148;2023-11-21T10:14:42;11.00;99.90
62581;DHT22;48640;48.770;9.148;2023-11-21T10:17:11;11.10;99.90
62581;DHT22;48640;48.770;9.148;2023-11-21T10:19:39;11.20;99.90
62581;DHT22;48640;48.770;9.148;2023-11-21T10:22:08;11.20;99.90
62581;DHT22;48640;48.770;9.148;2023-11-21T10:24:35;11.00;99.90
62581;DHT22;48640;48.770;9.148;2023-11-21T10:27:04;10.90;99.90
62581;DHT22;48640;48.770;9.148;2023-11-21T10:29:31;10.80;99.90
62581;DHT22;48640;48.770;9.148;2023-11-21T10:32:02;10.90;99.90
62581;DHT22;48640;48.770;9.148;2023-11-21T10:34:29;10.80;99.90
62581;DHT22;48640;48.770;9.148;2023-11-21T10:36:56;10.80;99.90
62581;DHT22;48640;48.770;9.148;2023-11-21T10:39:25;10.80;99.90
62581;DHT22;48640;48.770;9.148;2023-11-21T10:41:56;10.70;99.90
62581;DHT22;48640;48.770;9.148;2023-11-21T10:44:23;10.70;99.90
62581;DHT22;48640;48.770;9.148;2023-11-21T10:46:51;10.70;99.90
62581;DHT22;48640;48.770;9.148;2023-11-21T10:49:21;10.60;99.90
62581;DHT22;48640;48.770;9.148;2023-11-21T10:51:50;10.70;99.90
62581;DHT22;48640;48.770;9.148;2023-11-21T10:54:19;10.60;99.90
62581;DHT22;48640;48.770;9.148;2023-11-21T10:56:49;10.50;99.90
62581;DHT22;48640;48.770;9.148;2023-11-21T10:59:17;10.60;99.90
62581;DHT22;48640;48.770;9.148;2023-11-21T11:01:46;10.70;99.90
62581;DHT22;48640;48.770;9.148;2023-11-21T11:04:15;10.80;99.90
62581;DHT22;48640;48.770;9.148;2023-11-21T11:06:45;10.80;99.90
62581;DHT22;48640;48.770;9.148;2023-11-21T11:09:13;10.90;99.90
62581;DHT22;48640;48.770;9.148;2023-11-21T11:11:42;11.20;99.90
62581;DHT22;48640;48.770;9.148;2023-11-21T11:14:12;11.30;99.90
62581;DHT22;48640;48.770;9.148;2023-11-21T11:16:40;11.30;99.90
62581;DHT22;48640;48.770;9.148;2023-11-21T11:19:08;11.20;99.90
62581;DHT22;48640;48.770;9.148;2023-11-21T11:21:46;11.30;99.90
62581;DHT22;48640;48.770;9.148;2023-11-21T11:27:15;11.20;99.90
62581;DHT22;48640;48.770;9.148;2023-11-21T11:29:59;11.30;99.90
62581;DHT22;48640;48.770;9.148;2023-11-21T11:32:40;11.40;99.90
62581;DHT22;48640;48.770;9.148;2023-11-21T11:35:13;11.40;99.90
62581;DHT22;48640;48.770;9.148;2023-11-21T11:37:43;11.50;99.90
62581;DHT22;48640;48.770;9.148;2023-11-21T11:40:12;11.50;99.90
62581;DHT22;48640;48.770;9.148;2023-11-21T11:42:56;11.40;99.90
62581;DHT22;48640;48.770;9.148;2023-11-21T11:45:31;11.40;99.90
62581;DHT22;48640;48.770;9.148;2023-11-21T11:47:59;11.40;99.90
62581;DHT22;48640;48.770;9.148;2023-11-21T11:50:27;11.30;99.90
62581;DHT22;48640;48.770;9.148;2023-11-21T11:52:54;11.60;99.90
62581;DHT22;48640;48.770;9.148;2023-11-21T11:55:24;11.70;99.90
62581;DHT22;48640;48.770;9.148;2023-11-21T11:57:53;11.90;99.90
62581;DHT22;48640;48.770;9.148;2023-11-21T12:00:32;12.00;99.90
62581;DHT22;48640;48.770;9.148;2023-11-21T12:03:03;12.10;99.90
62581;DHT22;48640;48.770;9.148;2023-11-21T12:05:32;12.20;99.90
62581;DHT22;48640;48.770;9.148;2023-11-21T12:08:03;12.20;99.90
62581;DHT22;48640;48.770;9.148;2023-11-21T12:10:32;12.20;99.90
62581;DHT22;48640;48.770;9.148;2023-11-21T12:13:00;12.20;99.90
62581;DHT22;48640;48.770;9.148;2023-11-21T12:15:29;12.10;99.90
62581;DHT22;48640;48.770;9.148;2023-11-21T12:17:57;11.90;99.90
62581;DHT22;48640;48.770;9.148;2023-11-21T12:20:25;11.70;99.90
62581;DHT22;48640;48.770;9.148;2023-11-21T12:22:54;11.70;99.90
62581;DHT22;48640;48.770;9.148;2023-11-21T12:25:22;11.80;99.90
62581;DHT22;48640;48.770;9.148;2023-11-21T12:27:50;12.00;99.90
62581;DHT22;48640;48.770;9.148;2023-11-21T12:30:18;12.10;99.90
62581;DHT22;48640;48.770;9.148;2023-11-21T12:32:50;12.00;99.90
62581;DHT22;48640;48.770;9.148;2023-11-21T12:35:18;12.10;99.90
62581;DHT22;48640;48.770;9.148;2023-11-21T12:37:47;12.20;99.90
62581;DHT22;48640;48.770;9.148;2023-11-21T12:40:15;12.00;99.90
62581;DHT22;48640;48.770;9.148;2023-11-21T12:42:44;11.90;99.90
62581;DHT22;48640;48.770;9.148;2023-11-21T12:45:19;11.70;99.90
62581;DHT22;48640;48.770;9.148;2023-11-21T12:47:49;11.70;99.90
62581;DHT22;48640;48.770;9.148;2023-11-21T12:50:18;11.60;99.90
62581;DHT22;48640;48.770;9.148;2023-11-21T12:52:49;11.40;99.90
62581;DHT22;48640;48.770;9.148;2023-11-21T12:55:17;11.30;99.90
62581;DHT22;48640;48.770;9.148;2023-11-21T12:57:48;11.30;99.90
62581;DHT22;48640;48.770;9.148;2023-11-21T13:00:16;11.20;99.90
62581;DHT22;48640;48.770;9.148;2023-11-21T13:02:55;11.10;99.90
62581;DHT22;48640;48.770;9.148;2023-11-21T13:05:25;11.10;99.90
62581;DHT22;48640;48.770;9.148;2023-11-21T13:07:52;11.30;99.90
62581;DHT22;48640;48.770;9.148;2023-11-21T13:10:21;11.40;99.90
62581;DHT22;48640;48.770;9.148;2023-11-21T13:12:51;11.70;99.90
62581;DHT22;48640;48.770;9.148;2023-11-21T13:15:19;11.80;99.90
62581;DHT22;48640;48.770;9.148;2023-11-21T13:17:46;12.00;99.90
62581;DHT22;48640;48.770;9.148;2023-11-21T13:20:15;12.00;99.90
62581;DHT22;48640;48.770;9.148;2023-11-21T13:22:47;11.90;99.90
62581;DHT22;48640;48.770;9.148;2023-11-21T13:25:15;11.80;99.90
62581;DHT22;48640;48.770;9.148;2023-11-21T13:27:43;11.60;99.90
62581;DHT22;48640;48.770;9.148;2023-11-21T13:30:12;11.40;99.90
62581;DHT22;48640;48.770;9.148;2023-11-21T13:32:41;11.30;99.90
62581;DHT22;48640;48.770;9.148;2023-11-21T13:35:08;11.20;99.90
62581;DHT22;48640;48.770;9.148;2023-11-21T13:37:42;11.20;99.90
62581;DHT22;48640;48.770;9.148;2023-11-21T13:40:11;11.10;99.90
62581;DHT22;48640;48.770;9.148;2023-11-21T13:42:40;11.10;99.90
62581;DHT22;48640;48.770;9.148;2023-11-21T13:45:09;10.90;99.90
62581;DHT22;48640;48.770;9.148;2023-11-21T13:47:37;10.90;99.90
62581;DHT22;48640;48.770;9.148;2023-11-21T13:50:06;10.70;99.90
62581;DHT22;48640;48.770;9.148;2023-11-21T13:52:44;10.50;99.90
62581;DHT22;48640;48.770;9.148;2023-11-21T13:55:12;10.30;99.90
62581;DHT22;48640;48.770;9.148;2023-11-21T13:57:42;10.20;99.90
62581;DHT22;48640;48.770;9.148;2023-11-21T14:00:13;10.10;99.90
62581;DHT22;48640;48.770;9.148;2023-11-21T14:03:01;10.00;99.90
62581;DHT22;48640;48.770;9.148;2023-11-21T14:05:33;10.00;99.90
62581;DHT22;48640;48.770;9.148;2023-11-21T14:08:02;10.10;99.90
62581;DHT22;48640;48.770;9.148;2023-11-21T14:10:30;10.20;99.90
62581;DHT22;48640;48.770;9.148;2023-11-21T14:13:06;10.10;99.90
62581;DHT22;48640;48.770;9.148;2023-11-21T14:15:35;10.10;99.90
62581;DHT22;48640;48.770;9.148;2023-11-21T14:18:07;10.10;99.90
62581;DHT22;48640;48.770;9.148;2023-11-21T14:20:36;10.10;99.90
62581;DHT22;48640;48.770;9.148;2023-11-21T14:23:05;10.10;99.90
62581;DHT22;48640;48.770;9.148;2023-11-21T14:25:32;10.10;99.90
62581;DHT22;48640;48.770;9.148;2023-11-21T14:27:59;10.10;99.90
62581;DHT22;48640;48.770;9.148;2023-11-21T14:30:27;10.20;99.90
62581;DHT22;48640;48.770;9.148;2023-11-21T14:32:57;10.10;99.90
62581;DHT22;48640;48.770;9.148;2023-11-21T14:35:24;10.10;99.90
62581;DHT22;48640;48.770;9.148;2023-11-21T14:37:52;10.00;99.90
62581;DHT22;48640;48.770;9.148;2023-11-21T14:40:21;9.90;99.90
62581;DHT22;48640;48.770;9.148;2023-11-21T14:42:50;9.90;99.90
62581;DHT22;48640;48.770;9.148;2023-11-21T14:45:18;9.90;99.90
62581;DHT22;48640;48.770;9.148;2023-11-21T14:47:46;9.80;99.90
62581;DHT22;48640;48.770;9.148;2023-11-21T14:50:18;9.80;99.90
62581;DHT22;48640;48.770;9.148;2023-11-21T14:53:03;9.70;99.90
62581;DHT22;48640;48.770;9.148;2023-11-21T14:55:33;9.80;99.90
62581;DHT22;48640;48.770;9.148;2023-11-21T14:58:08;9.90;99.90
62581;DHT22;48640;48.770;9.148;2023-11-21T15:00:39;9.80;99.90
62581;DHT22;48640;48.770;9.148;2023-11-21T15:03:10;9.90;99.90
62581;DHT22;48640;48.770;9.148;2023-11-21T15:05:49;10.00;99.90
62581;DHT22;48640;48.770;9.148;2023-11-21T15:08:16;10.00;99.90
62581;DHT22;48640;48.770;9.148;2023-11-21T15:10:48;10.10;99.90
62581;DHT22;48640;48.770;9.148;2023-11-21T15:13:19;10.10;99.90
62581;DHT22;48640;48.770;9.148;2023-11-21T15:15:46;10.10;99.90
62581;DHT22;48640;48.770;9.148;2023-11-21T15:18:12;10.10;99.90
62581;DHT22;48640;48.770;9.148;2023-11-21T15:20:40;10.10;99.90
62581;DHT22;48640;48.770;9.148;2023-11-21T15:23:07;10.00;99.90
62581;DHT22;48640;48.770;9.148;2023-11-21T15:25:34;10.00;99.90
62581;DHT22;48640;48.770;9.148;2023-11-21T15:28:04;10.00;99.90
62581;DHT22;48640;48.770;9.148;2023-11-21T15:30:31;9.80;99.90
62581;DHT22;48640;48.770;9.148;2023-11-21T15:32:58;9.80;99.90
62581;DHT22;48640;48.770;9.148;2023-11-21T15:35:26;9.90;99.90
62581;DHT22;48640;48.770;9.148;2023-11-21T15:37:53;9.90;99.90
62581;DHT22;48640;48.770;9.148;2023-11-21T15:40:23;9.80;99.90
62581;DHT22;48640;48.770;9.148;2023-11-21T15:42:50;9.80;99.90
62581;DHT22;48640;48.770;9.148;2023-11-21T15:45:19;9.90;99.90
62581;DHT22;48640;48.770;9.148;2023-11-21T15:47:48;9.90;99.90
62581;DHT22;48640;48.770;9.148;2023-11-21T15:50:15;9.80;99.90